Aviation Digital Data Service (ADDS)

Output produced by METARs form (1918 UTC 21 September 2021)
found at http://www.aviationweather.gov/metar/data/
 
TAF MKJS 211715Z 2118/2218 07015KT 9999 FEW022 
     PROB30 
     TEMPO 2119/2123 TSRA SCT018 SCT020CB 
     BECMG 2200/2202 13004KT 
     BECMG 2213/2215 08015KT